createdAt,value
2022-12-14T00:01:49.613Z,30.02
2022-12-14T00:04:18.423Z,33.47
2022-12-14T00:06:48.498Z,26.80
2022-12-14T00:09:17.116Z,32.75
2022-12-14T00:11:46.067Z,28.40
2022-12-14T00:14:14.677Z,28.25
2022-12-14T00:16:43.209Z,30.02
2022-12-14T00:19:13.059Z,24.80
2022-12-14T00:21:41.618Z,27.10
2022-12-14T00:24:13.105Z,29.88
2022-12-14T00:26:41.645Z,26.80
2022-12-14T00:29:10.411Z,31.23
2022-12-14T00:31:39.303Z,34.13
2022-12-14T00:34:08.058Z,45.10
2022-12-14T00:36:38.131Z,35.63
2022-12-14T00:39:06.712Z,34.05
2022-12-14T00:41:37.058Z,32.65
2022-12-14T00:44:06.236Z,35.95
2022-12-14T00:46:35.017Z,35.15
2022-12-14T00:49:03.859Z,33.30
2022-12-14T00:51:32.685Z,31.80
2022-12-14T00:54:01.644Z,32.13
2022-12-14T00:56:30.641Z,37.88
2022-12-14T00:59:01.134Z,37.72
2022-12-14T01:01:30.710Z,30.70
2022-12-14T01:04:17.393Z,32.83
2022-12-14T01:06:46.663Z,35.38
2022-12-14T01:09:16.546Z,30.83
2022-12-14T01:11:45.607Z,27.02
2022-12-14T01:14:19.273Z,30.25
2022-12-14T01:16:48.205Z,29.85
2022-12-14T01:19:17.152Z,25.83
2022-12-14T01:21:46.155Z,25.02
2022-12-14T01:24:15.116Z,25.02
2022-12-14T01:26:43.538Z,32.28
2022-12-14T01:29:13.133Z,32.35
2022-12-14T01:31:43.607Z,29.95
2022-12-14T01:34:17.602Z,39.53
2022-12-14T01:36:46.520Z,38.17
2022-12-14T01:39:16.913Z,34.80
2022-12-14T01:41:47.419Z,29.25
2022-12-14T01:44:49.318Z,34.37
2022-12-14T01:47:25.772Z,29.30
2022-12-14T01:49:59.789Z,30.92
2022-12-14T01:52:36.331Z,38.25
2022-12-14T01:55:09.281Z,38.75
2022-12-14T01:57:42.614Z,44.45
2022-12-14T02:00:14.179Z,45.88
2022-12-14T02:02:51.249Z,54.85
2022-12-14T02:05:23.261Z,42.90
2022-12-14T02:07:56.765Z,56.40
2022-12-14T02:10:27.632Z,48.33
2022-12-14T02:13:03.318Z,50.85
2022-12-14T02:15:34.357Z,41.97
2022-12-14T02:18:07.426Z,41.17
2022-12-14T02:20:46.820Z,36.95
2022-12-14T02:23:51.283Z,37.75
2022-12-14T02:26:56.355Z,31.33
2022-12-14T02:29:49.900Z,24.63
2022-12-14T02:32:33.895Z,25.75
2022-12-14T02:35:09.505Z,31.23
2022-12-14T02:37:49.219Z,25.88
2022-12-14T02:40:26.491Z,20.77
2022-12-14T02:43:04.406Z,31.23
2022-12-14T02:45:42.123Z,28.65
2022-12-14T02:48:17.726Z,25.95
2022-12-14T02:50:54.448Z,28.48
2022-12-14T02:53:31.085Z,22.92
2022-12-14T02:56:03.946Z,25.13
2022-12-14T02:58:37.779Z,26.45
2022-12-14T03:01:11.514Z,26.60
2022-12-14T03:03:40.728Z,29.00
2022-12-14T03:06:15.860Z,25.55
2022-12-14T03:08:47.587Z,20.75
2022-12-14T03:11:21.793Z,21.92
2022-12-14T03:13:56.567Z,28.15
2022-12-14T03:16:29.944Z,28.98
2022-12-14T03:19:03.829Z,28.48
2022-12-14T03:21:37.612Z,21.65
2022-12-14T03:24:11.209Z,27.25
2022-12-14T03:26:47.425Z,27.05
2022-12-14T03:29:22.803Z,28.13
2022-12-14T03:31:57.810Z,19.88
2022-12-14T03:34:32.684Z,18.83
2022-12-14T03:37:07.486Z,21.00
2022-12-14T03:39:38.090Z,19.58
2022-12-14T03:42:16.815Z,20.70
2022-12-14T03:44:50.765Z,18.63
2022-12-14T03:47:37.410Z,17.08
2022-12-14T03:50:11.832Z,19.85
2022-12-14T03:52:45.279Z,17.52
2022-12-14T03:55:26.070Z,19.65
2022-12-14T03:58:11.274Z,19.07
2022-12-14T04:00:47.274Z,20.15
2022-12-14T04:03:28.506Z,20.35
2022-12-14T04:06:02.139Z,17.67
2022-12-14T04:08:39.372Z,15.35
2022-12-14T04:11:28.191Z,17.15
2022-12-14T04:14:18.075Z,16.85
2022-12-14T04:17:17.132Z,19.17
2022-12-14T04:19:51.107Z,15.18
2022-12-14T04:22:24.083Z,16.20
2022-12-14T04:25:16.166Z,19.83
2022-12-14T04:27:49.670Z,17.67
2022-12-14T04:30:17.953Z,19.85
2022-12-14T04:32:51.786Z,16.55
2022-12-14T04:35:27.296Z,19.95
2022-12-14T04:38:01.264Z,18.55
2022-12-14T04:40:34.880Z,17.30
2022-12-14T04:43:07.856Z,19.45
2022-12-14T04:45:43.268Z,22.13
2022-12-14T04:48:23.526Z,16.73
2022-12-14T04:50:59.650Z,25.67
2022-12-14T04:53:32.657Z,24.05
2022-12-14T04:56:07.820Z,25.45
2022-12-14T04:58:38.038Z,21.00
2022-12-14T05:01:22.732Z,21.50
2022-12-14T05:04:00.506Z,20.52
2022-12-14T05:06:39.410Z,18.27
2022-12-14T05:09:16.084Z,19.27
2022-12-14T05:11:54.609Z,21.52
2022-12-14T05:14:29.280Z,14.15
2022-12-14T05:17:02.339Z,15.70
2022-12-14T05:19:33.702Z,21.80
2022-12-14T05:22:08.306Z,17.50
2022-12-14T05:24:37.042Z,18.88
2022-12-14T05:27:06.384Z,17.15
2022-12-14T05:29:36.113Z,18.35
2022-12-14T05:32:05.060Z,18.92
2022-12-14T05:34:34.652Z,22.25
2022-12-14T05:37:05.218Z,14.52
2022-12-14T05:39:34.049Z,17.38
2022-12-14T05:42:02.968Z,26.13
2022-12-14T05:44:31.822Z,16.85
2022-12-14T05:47:00.582Z,17.30
2022-12-14T05:49:29.447Z,16.55
2022-12-14T05:51:58.109Z,24.75
2022-12-14T05:54:28.696Z,17.13
2022-12-14T05:56:57.507Z,17.63
2022-12-14T05:59:26.256Z,18.88
2022-12-14T06:01:54.941Z,20.30
2022-12-14T06:04:23.660Z,17.67
2022-12-14T06:06:53.468Z,22.58
2022-12-14T06:09:22.941Z,23.92
2022-12-14T06:11:52.684Z,28.52
2022-12-14T06:14:21.528Z,22.33
2022-12-14T06:16:50.078Z,35.03
2022-12-14T06:19:18.701Z,26.80
2022-12-14T06:21:47.144Z,36.10
2022-12-14T06:24:16.352Z,35.90
2022-12-14T06:26:46.974Z,28.92
2022-12-14T06:29:19.880Z,32.67
2022-12-14T06:31:49.702Z,28.83
2022-12-14T06:34:22.336Z,33.13
2022-12-14T06:36:52.996Z,30.67
2022-12-14T06:39:22.059Z,26.77
2022-12-14T06:41:52.591Z,29.10
2022-12-14T06:44:23.143Z,32.38
2022-12-14T06:46:52.440Z,28.25
2022-12-14T06:49:21.261Z,25.50
2022-12-14T06:51:50.036Z,28.85
2022-12-14T06:54:19.666Z,29.77
2022-12-14T06:56:48.906Z,27.00
2022-12-14T06:59:18.215Z,27.85
2022-12-14T07:01:50.335Z,31.60
2022-12-14T07:04:21.615Z,31.75
2022-12-14T07:06:50.253Z,29.08
2022-12-14T07:09:19.871Z,28.00
2022-12-14T07:11:51.652Z,25.52
2022-12-14T07:14:20.860Z,30.20
2022-12-14T07:16:52.703Z,39.63
2022-12-14T07:19:21.898Z,38.55
2022-12-14T07:21:50.547Z,39.50
2022-12-14T07:24:19.636Z,35.30
2022-12-14T07:26:48.222Z,35.50
2022-12-14T07:29:17.831Z,33.53
2022-12-14T07:31:49.402Z,41.53
2022-12-14T07:34:20.037Z,38.65
2022-12-14T07:36:51.630Z,42.05
2022-12-14T07:39:21.515Z,35.55
2022-12-14T07:41:52.364Z,43.97
2022-12-14T07:44:23.609Z,43.80
2022-12-14T07:46:52.598Z,45.97
2022-12-14T07:49:23.199Z,43.33
2022-12-14T07:51:53.166Z,42.92
2022-12-14T07:54:22.346Z,43.75
2022-12-14T07:56:51.165Z,45.75
2022-12-14T07:59:21.869Z,44.63
2022-12-14T08:01:50.923Z,40.00
2022-12-14T08:04:21.407Z,45.78
2022-12-14T08:06:51.842Z,48.83
2022-12-14T08:09:21.813Z,40.63
2022-12-14T08:11:51.083Z,44.05
2022-12-14T08:16:52.101Z,44.45
2022-12-14T08:19:21.525Z,40.58
2022-12-14T08:21:51.741Z,35.85
2022-12-14T08:24:21.239Z,41.50
2022-12-14T08:26:49.976Z,38.50
2022-12-14T08:29:19.894Z,43.55
2022-12-14T08:31:49.544Z,47.33
2022-12-14T08:34:23.050Z,41.33
2022-12-14T08:36:53.591Z,39.35
2022-12-14T08:39:22.231Z,39.67
2022-12-14T08:41:50.904Z,35.42
2022-12-14T08:44:19.809Z,36.47
2022-12-14T08:46:48.962Z,45.03
2022-12-14T08:49:18.586Z,43.15
2022-12-14T08:51:47.228Z,25.80
2022-12-14T08:54:18.837Z,36.88
2022-12-14T08:56:47.925Z,26.85
2022-12-14T08:59:36.997Z,22.47
2022-12-14T09:02:06.887Z,26.00
2022-12-14T09:04:36.452Z,20.30
2022-12-14T09:07:04.972Z,25.00
2022-12-14T09:09:37.395Z,29.15
2022-12-14T09:12:08.160Z,26.85
2022-12-14T09:14:36.709Z,22.67
2022-12-14T09:17:05.852Z,27.73
2022-12-14T09:19:35.160Z,28.40
2022-12-14T09:22:04.366Z,27.58
2022-12-14T09:24:35.032Z,25.65
2022-12-14T09:27:04.458Z,28.53
2022-12-14T09:29:33.121Z,28.92
2022-12-14T09:32:01.647Z,32.70
2022-12-14T09:34:30.292Z,30.55
2022-12-14T09:36:59.261Z,31.73
2022-12-14T09:39:29.418Z,25.45
2022-12-14T09:42:12.580Z,28.75
2022-12-14T09:44:54.561Z,35.45
2022-12-14T09:47:29.171Z,39.72
2022-12-14T09:50:02.007Z,33.00
2022-12-14T09:52:38.337Z,33.58
2022-12-14T09:55:18.399Z,32.60
2022-12-14T09:57:50.964Z,30.85
2022-12-14T10:00:21.623Z,32.50
2022-12-14T10:03:06.601Z,39.28
2022-12-14T10:05:53.945Z,32.50
2022-12-14T10:08:29.513Z,31.63
2022-12-14T10:11:08.264Z,29.65
2022-12-14T10:13:51.401Z,40.72
2022-12-14T10:16:29.761Z,27.55
2022-12-14T10:19:10.491Z,26.65
2022-12-14T10:21:54.190Z,26.70
2022-12-14T10:24:28.770Z,24.67
2022-12-14T10:26:57.552Z,30.80
2022-12-14T10:29:34.443Z,24.23
2022-12-14T10:32:15.249Z,27.60
2022-12-14T10:34:44.825Z,21.35
2022-12-14T10:37:24.551Z,24.10
2022-12-14T10:40:09.010Z,28.55
2022-12-14T10:42:50.985Z,24.38
2022-12-14T10:45:40.136Z,26.95
2022-12-14T10:48:33.063Z,22.38
2022-12-14T10:51:05.761Z,25.02
2022-12-14T10:53:41.066Z,24.85
2022-12-14T10:56:15.875Z,23.50
2022-12-14T10:58:44.726Z,28.50
2022-12-14T11:01:16.933Z,32.75
2022-12-14T11:03:50.904Z,31.92
2022-12-14T11:06:21.839Z,30.02
2022-12-14T11:08:50.854Z,33.08
2022-12-14T11:11:22.466Z,34.50
2022-12-14T11:14:07.233Z,33.30
2022-12-14T11:16:39.555Z,28.60
2022-12-14T11:19:18.353Z,29.27
2022-12-14T11:21:49.850Z,26.50
2022-12-14T11:24:23.938Z,24.90
2022-12-14T11:26:59.744Z,31.60
2022-12-14T11:29:32.378Z,32.38
2022-12-14T11:32:03.272Z,48.35
2022-12-14T11:34:38.407Z,50.88
2022-12-14T11:37:15.556Z,35.97
2022-12-14T11:39:44.719Z,31.92
2022-12-14T11:42:19.154Z,39.63
2022-12-14T11:44:49.515Z,39.83
2022-12-14T11:47:21.367Z,33.00
2022-12-14T11:49:52.005Z,32.42
2022-12-14T11:52:22.490Z,33.28
2022-12-14T11:57:36.742Z,30.88
2022-12-14T12:00:09.406Z,26.33
2022-12-14T12:02:42.808Z,43.78
2022-12-14T12:05:16.877Z,47.83
2022-12-14T12:07:53.367Z,42.17
2022-12-14T12:10:25.348Z,44.65
2022-12-14T12:12:56.593Z,40.03
2022-12-14T12:18:03.315Z,57.65
2022-12-14T12:20:36.405Z,45.60
2022-12-14T12:23:11.759Z,43.08
2022-12-14T12:25:43.249Z,52.72
2022-12-14T12:28:19.280Z,60.83
2022-12-14T12:30:52.672Z,56.00
2022-12-14T12:33:34.630Z,55.53
2022-12-14T12:36:06.282Z,125.65
2022-12-14T12:41:21.371Z,69.63
2022-12-14T12:43:55.043Z,48.95
2022-12-14T12:46:30.035Z,55.70
2022-12-14T12:49:06.302Z,54.92
2022-12-14T12:51:45.576Z,54.22
2022-12-14T12:54:19.252Z,43.85
2022-12-14T12:56:50.766Z,37.45
2022-12-14T12:59:22.005Z,29.88
2022-12-14T13:01:54.295Z,35.90
2022-12-14T13:04:34.969Z,38.92
2022-12-14T13:07:15.048Z,32.38
2022-12-14T13:09:49.510Z,30.13
2022-12-14T13:12:25.169Z,33.00
2022-12-14T13:14:57.703Z,34.60
2022-12-14T13:17:39.679Z,40.75
2022-12-14T13:20:20.555Z,33.53
2022-12-14T13:22:50.001Z,33.17
2022-12-14T13:25:23.511Z,30.83
2022-12-14T13:28:23.664Z,39.42
2022-12-14T13:31:03.689Z,36.60
2022-12-14T13:33:59.880Z,41.17
2022-12-14T13:37:02.571Z,37.97
2022-12-14T13:39:51.017Z,38.65
2022-12-14T13:42:27.712Z,38.45
2022-12-14T13:44:59.310Z,30.63
2022-12-14T13:47:32.277Z,36.95
2022-12-14T13:53:01.249Z,39.45
2022-12-14T13:55:35.705Z,36.28
2022-12-14T13:58:11.229Z,36.45
2022-12-14T14:01:00.948Z,35.60
2022-12-14T14:03:53.964Z,37.00
2022-12-14T14:06:36.453Z,35.67
2022-12-14T14:09:47.457Z,34.63
2022-12-14T14:12:36.272Z,32.20
2022-12-14T14:15:26.639Z,34.10
2022-12-14T14:17:56.541Z,32.95
2022-12-14T14:20:37.560Z,31.58
2022-12-14T14:23:34.902Z,26.02
2022-12-14T14:26:28.557Z,34.15
2022-12-14T14:29:20.934Z,36.35
2022-12-14T14:31:55.502Z,37.28
2022-12-14T14:34:33.773Z,38.78
2022-12-14T14:37:15.149Z,36.20
2022-12-14T14:39:57.768Z,32.00
2022-12-14T14:42:32.229Z,32.03
2022-12-14T14:47:36.557Z,27.63
2022-12-14T14:50:10.735Z,29.77
2022-12-14T14:53:14.189Z,32.45
2022-12-14T14:55:59.647Z,26.52
2022-12-14T14:58:32.436Z,32.80
2022-12-14T15:01:27.084Z,33.22
2022-12-14T15:04:16.998Z,37.20
2022-12-14T15:06:54.884Z,32.05
2022-12-14T15:09:30.693Z,36.55
2022-12-14T15:12:08.682Z,39.47
2022-12-14T15:14:43.360Z,43.20
2022-12-14T15:17:22.503Z,40.47
2022-12-14T15:19:52.438Z,35.83
2022-12-14T15:22:23.168Z,40.60
2022-12-14T15:24:57.178Z,34.17
2022-12-14T15:27:29.822Z,33.90
2022-12-14T15:30:04.079Z,32.25
2022-12-14T15:32:34.964Z,31.77
2022-12-14T15:35:06.978Z,33.15
2022-12-14T15:37:46.111Z,30.95
2022-12-14T15:40:22.560Z,34.58
2022-12-14T15:42:53.224Z,38.20
2022-12-14T15:45:25.373Z,47.72
2022-12-14T15:47:56.089Z,33.13
2022-12-14T15:50:27.905Z,38.33
2022-12-14T15:53:00.317Z,33.55
2022-12-14T15:55:35.264Z,37.78
2022-12-14T15:58:10.883Z,35.42
2022-12-14T16:00:43.961Z,30.38
2022-12-14T16:03:23.279Z,32.28
2022-12-14T16:05:52.129Z,34.75
2022-12-14T16:08:23.401Z,37.05
2022-12-14T16:10:55.224Z,29.60
2022-12-14T16:13:29.031Z,38.08
2022-12-14T16:15:59.485Z,31.17
2022-12-14T16:18:29.551Z,31.58
2022-12-14T16:21:01.826Z,35.95
2022-12-14T16:23:33.180Z,40.17
2022-12-14T16:26:05.034Z,29.63
2022-12-14T16:31:06.197Z,30.90
2022-12-14T16:33:38.603Z,31.10
2022-12-14T16:36:10.116Z,29.17
2022-12-14T16:38:55.179Z,33.83
2022-12-14T16:41:35.992Z,32.72
2022-12-14T16:44:07.150Z,24.02
2022-12-14T16:46:35.797Z,32.47
2022-12-14T16:49:32.550Z,31.52
2022-12-14T16:52:07.969Z,30.02
2022-12-14T16:54:38.382Z,36.08
2022-12-14T16:57:17.902Z,41.08
2022-12-14T16:59:48.359Z,33.70
2022-12-14T17:02:29.559Z,27.48
2022-12-14T17:05:01.564Z,31.33
2022-12-14T17:07:33.114Z,30.70
2022-12-14T17:10:01.770Z,29.45
2022-12-14T17:12:30.665Z,24.38
2022-12-14T17:15:00.182Z,27.17
2022-12-14T17:17:34.365Z,29.08
2022-12-14T17:20:13.427Z,27.20
2022-12-14T17:22:43.373Z,32.92
2022-12-14T17:25:18.888Z,30.77
2022-12-14T17:27:49.416Z,38.80
2022-12-14T17:30:19.634Z,37.73
2022-12-14T17:32:49.735Z,29.00
2022-12-14T17:35:22.592Z,31.08
2022-12-14T17:37:51.471Z,26.52
2022-12-14T17:40:21.180Z,31.10
2022-12-14T17:42:54.087Z,30.98
2022-12-14T17:45:24.869Z,32.58
2022-12-14T17:47:54.640Z,23.65
2022-12-14T17:50:26.529Z,21.88
2022-12-14T17:52:58.325Z,28.10
2022-12-14T17:55:30.592Z,29.60
2022-12-14T17:57:59.327Z,26.33
2022-12-14T18:00:47.199Z,26.05
2022-12-14T18:03:17.344Z,23.60
2022-12-14T18:05:50.568Z,24.85
2022-12-14T18:08:20.423Z,22.40
2022-12-14T18:10:56.641Z,27.05
2022-12-14T18:13:25.331Z,26.63
2022-12-14T18:15:54.695Z,27.45
2022-12-14T18:18:30.770Z,22.83
2022-12-14T18:21:03.203Z,26.52
2022-12-14T18:23:32.643Z,29.45
2022-12-14T18:26:02.816Z,26.45
2022-12-14T18:28:31.366Z,29.88
2022-12-14T18:31:03.387Z,28.75
2022-12-14T18:33:36.470Z,28.27
2022-12-14T18:36:07.576Z,26.92
2022-12-14T18:38:37.429Z,23.65
2022-12-14T18:41:07.031Z,21.23
2022-12-14T18:43:41.715Z,19.92
2022-12-14T18:46:12.918Z,26.45
2022-12-14T18:48:42.629Z,29.25
2022-12-14T18:51:15.586Z,24.00
2022-12-14T18:53:44.447Z,23.42
2022-12-14T18:56:13.461Z,25.52
2022-12-14T18:58:44.742Z,22.17
2022-12-14T19:01:20.357Z,23.92
2022-12-14T19:03:49.357Z,21.42
2022-12-14T19:09:16.155Z,21.13
2022-12-14T19:11:45.754Z,23.42
2022-12-14T19:14:14.542Z,21.95
2022-12-14T19:16:43.735Z,22.58
2022-12-14T19:19:15.051Z,25.42
2022-12-14T19:21:45.294Z,22.70
2022-12-14T19:24:15.117Z,24.83
2022-12-14T19:26:44.341Z,25.58
2022-12-14T19:29:20.614Z,23.67
2022-12-14T19:34:24.283Z,24.58
2022-12-14T19:36:55.401Z,26.52
2022-12-14T19:39:26.918Z,26.98
2022-12-14T19:41:55.919Z,26.38
2022-12-14T19:44:24.630Z,26.27
2022-12-14T19:46:55.071Z,25.25
2022-12-14T19:49:25.728Z,23.58
2022-12-14T19:51:55.885Z,23.35
2022-12-14T19:54:24.830Z,23.80
2022-12-14T19:56:53.781Z,22.35
2022-12-14T19:59:24.712Z,26.33
2022-12-14T20:01:53.616Z,24.93
2022-12-14T20:04:22.441Z,19.67
2022-12-14T20:06:51.340Z,22.60
2022-12-14T20:09:21.419Z,26.00
2022-12-14T20:11:58.372Z,27.80
2022-12-14T20:14:27.357Z,26.08
2022-12-14T20:16:56.272Z,25.58
2022-12-14T20:19:26.091Z,23.55
2022-12-14T20:21:56.263Z,23.30
2022-12-14T20:24:26.404Z,19.42
2022-12-14T20:26:55.109Z,29.33
2022-12-14T20:29:24.947Z,24.00
2022-12-14T20:31:55.279Z,20.50
2022-12-14T20:34:24.380Z,29.13
2022-12-14T20:36:53.078Z,21.33
2022-12-14T20:39:21.920Z,30.55
2022-12-14T20:41:52.045Z,25.15
2022-12-14T20:44:21.447Z,26.23
2022-12-14T20:46:51.959Z,25.20
2022-12-14T20:49:29.673Z,23.23
2022-12-14T20:51:59.356Z,20.75
2022-12-14T20:54:29.600Z,23.88
2022-12-14T20:57:00.083Z,24.77
2022-12-14T20:59:30.241Z,24.57
2022-12-14T21:01:59.140Z,25.27
2022-12-14T21:04:28.459Z,26.70
2022-12-14T21:06:58.495Z,20.33
2022-12-14T21:09:29.555Z,18.92
2022-12-14T21:12:32.671Z,21.23
2022-12-14T21:15:02.552Z,21.52
2022-12-14T21:17:31.976Z,22.52
2022-12-14T21:20:01.584Z,18.38
2022-12-14T21:22:30.888Z,19.35
2022-12-14T21:25:04.773Z,23.23
2022-12-14T21:27:38.573Z,20.08
2022-12-14T21:30:09.147Z,21.75
2022-12-14T21:32:38.684Z,22.35
2022-12-14T21:35:08.255Z,21.73
2022-12-14T21:37:38.851Z,23.23
2022-12-14T21:40:29.577Z,24.43
2022-12-14T21:45:28.475Z,21.13
2022-12-14T21:47:57.222Z,22.27
2022-12-14T21:50:25.942Z,21.33
2022-12-14T21:52:54.621Z,23.52
2022-12-14T21:55:23.681Z,23.42
2022-12-14T21:58:12.838Z,20.35
2022-12-14T22:00:42.988Z,21.65
2022-12-14T22:03:12.040Z,22.30
2022-12-14T22:05:41.056Z,23.75
2022-12-14T22:08:09.733Z,22.95
2022-12-14T22:10:38.197Z,20.52
2022-12-14T22:13:07.000Z,21.77
2022-12-14T22:15:35.629Z,18.75
2022-12-14T22:18:05.959Z,20.50
2022-12-14T22:20:34.773Z,26.25
2022-12-14T22:23:03.624Z,26.15
2022-12-14T22:25:32.335Z,25.75
2022-12-14T22:28:00.963Z,25.17
2022-12-14T22:30:31.809Z,25.85
2022-12-14T22:33:00.908Z,30.70
2022-12-14T22:35:31.002Z,30.85
2022-12-14T22:38:01.028Z,29.17
2022-12-14T22:40:31.609Z,27.15
2022-12-14T22:43:00.799Z,25.07
2022-12-14T22:45:29.582Z,28.75
2022-12-14T22:47:58.304Z,25.70
2022-12-14T22:50:27.123Z,26.05
2022-12-14T22:52:57.056Z,25.90
2022-12-14T22:55:26.360Z,28.52
2022-12-14T22:57:56.316Z,31.15
2022-12-14T23:00:24.856Z,26.77
2022-12-14T23:02:53.607Z,24.45
2022-12-14T23:05:22.369Z,26.17
2022-12-14T23:07:53.552Z,25.45
2022-12-14T23:10:40.861Z,27.50
2022-12-14T23:13:26.873Z,28.52
2022-12-14T23:16:12.648Z,25.65
2022-12-14T23:18:58.880Z,25.70
2022-12-14T23:21:44.845Z,26.27
2022-12-14T23:24:31.063Z,21.65
2022-12-14T23:27:18.313Z,22.52
2022-12-14T23:30:03.960Z,21.85
2022-12-14T23:32:50.139Z,26.27
2022-12-14T23:35:36.179Z,24.10
2022-12-14T23:38:23.336Z,22.10
2022-12-14T23:41:09.469Z,26.00
2022-12-14T23:43:56.846Z,24.90
2022-12-14T23:46:42.894Z,27.00
2022-12-14T23:49:29.035Z,27.00
2022-12-14T23:52:15.151Z,22.52
2022-12-14T23:55:01.235Z,26.38
2022-12-14T23:57:47.484Z,23.73
